sensor_id;sensor_type;location;lat;lon;timestamp;temperature;humidity
22288;DHT22;11312;51.464;6.968;2022-12-07T00:01:42;5.20;99.90
22288;DHT22;11312;51.464;6.968;2022-12-07T00:04:11;5.30;99.90
22288;DHT22;11312;51.464;6.968;2022-12-07T00:06:42;5.30;99.90
22288;DHT22;11312;51.464;6.968;2022-12-07T00:09:11;5.20;99.90
22288;DHT22;11312;51.464;6.968;2022-12-07T00:11:37;5.30;99.90
22288;DHT22;11312;51.464;6.968;2022-12-07T00:14:05;5.30;99.90
22288;DHT22;11312;51.464;6.968;2022-12-07T00:16:32;5.30;99.90
22288;DHT22;11312;51.464;6.968;2022-12-07T00:18:58;5.30;99.90
22288;DHT22;11312;51.464;6.968;2022-12-07T00:21:27;5.30;99.90
22288;DHT22;11312;51.464;6.968;2022-12-07T00:23:53;5.30;99.90
22288;DHT22;11312;51.464;6.968;2022-12-07T00:26:25;5.20;99.90
22288;DHT22;11312;51.464;6.968;2022-12-07T00:28:57;5.30;99.90
22288;DHT22;11312;51.464;6.968;2022-12-07T00:31:25;5.30;99.90
22288;DHT22;11312;51.464;6.968;2022-12-07T00:33:51;5.30;99.90
22288;DHT22;11312;51.464;6.968;2022-12-07T00:36:19;5.30;99.90
22288;DHT22;11312;51.464;6.968;2022-12-07T00:38:45;5.30;99.90
22288;DHT22;11312;51.464;6.968;2022-12-07T00:41:16;5.30;99.90
22288;DHT22;11312;51.464;6.968;2022-12-07T00:43:43;5.30;99.90
22288;DHT22;11312;51.464;6.968;2022-12-07T00:46:10;5.30;99.90
22288;DHT22;11312;51.464;6.968;2022-12-07T00:48:36;5.30;99.90
22288;DHT22;11312;51.464;6.968;2022-12-07T00:51:02;5.30;99.90
22288;DHT22;11312;51.464;6.968;2022-12-07T00:53:28;5.40;99.90
22288;DHT22;11312;51.464;6.968;2022-12-07T00:55:54;5.30;99.90
22288;DHT22;11312;51.464;6.968;2022-12-07T00:58:21;5.30;99.90
22288;DHT22;11312;51.464;6.968;2022-12-07T01:00:47;5.40;99.90
22288;DHT22;11312;51.464;6.968;2022-12-07T01:03:17;5.40;99.90
22288;DHT22;11312;51.464;6.968;2022-12-07T01:05:50;5.30;99.90
22288;DHT22;11312;51.464;6.968;2022-12-07T01:08:16;5.40;99.90
22288;DHT22;11312;51.464;6.968;2022-12-07T01:10:42;5.40;99.90
22288;DHT22;11312;51.464;6.968;2022-12-07T01:13:08;5.50;99.90
22288;DHT22;11312;51.464;6.968;2022-12-07T01:15:33;5.40;99.90
22288;DHT22;11312;51.464;6.968;2022-12-07T01:18:00;5.40;99.90
22288;DHT22;11312;51.464;6.968;2022-12-07T01:20:25;5.40;99.90
22288;DHT22;11312;51.464;6.968;2022-12-07T01:22:51;5.40;99.90
22288;DHT22;11312;51.464;6.968;2022-12-07T01:25:17;5.40;99.90
22288;DHT22;11312;51.464;6.968;2022-12-07T01:27:42;5.40;99.90
22288;DHT22;11312;51.464;6.968;2022-12-07T01:30:10;5.40;99.90
22288;DHT22;11312;51.464;6.968;2022-12-07T01:32:35;5.40;99.90
22288;DHT22;11312;51.464;6.968;2022-12-07T01:35:01;5.30;99.90
22288;DHT22;11312;51.464;6.968;2022-12-07T01:37:26;5.40;99.90
22288;DHT22;11312;51.464;6.968;2022-12-07T01:39:52;5.40;99.90
22288;DHT22;11312;51.464;6.968;2022-12-07T01:42:18;5.30;99.90
22288;DHT22;11312;51.464;6.968;2022-12-07T01:47:42;5.40;99.90
22288;DHT22;11312;51.464;6.968;2022-12-07T01:50:09;5.30;99.90
22288;DHT22;11312;51.464;6.968;2022-12-07T01:52:35;5.40;99.90
22288;DHT22;11312;51.464;6.968;2022-12-07T01:55:06;5.20;99.90
22288;DHT22;11312;51.464;6.968;2022-12-07T01:57:35;5.20;99.90
22288;DHT22;11312;51.464;6.968;2022-12-07T02:00:05;5.30;99.90
22288;DHT22;11312;51.464;6.968;2022-12-07T02:02:33;5.20;99.90
22288;DHT22;11312;51.464;6.968;2022-12-07T02:05:01;5.20;99.90
22288;DHT22;11312;51.464;6.968;2022-12-07T02:07:28;5.10;99.90
22288;DHT22;11312;51.464;6.968;2022-12-07T02:09:54;5.10;99.90
22288;DHT22;11312;51.464;6.968;2022-12-07T02:12:20;5.10;99.90
22288;DHT22;11312;51.464;6.968;2022-12-07T02:14:47;5.10;99.90
22288;DHT22;11312;51.464;6.968;2022-12-07T02:17:44;5.10;99.90
22288;DHT22;11312;51.464;6.968;2022-12-07T02:23:23;5.00;99.90
22288;DHT22;11312;51.464;6.968;2022-12-07T02:31:25;5.00;99.90
22288;DHT22;11312;51.464;6.968;2022-12-07T02:34:07;5.00;99.90
22288;DHT22;11312;51.464;6.968;2022-12-07T02:36:39;5.00;99.90
22288;DHT22;11312;51.464;6.968;2022-12-07T02:39:20;5.00;99.90
22288;DHT22;11312;51.464;6.968;2022-12-07T02:41:52;5.00;99.90
22288;DHT22;11312;51.464;6.968;2022-12-07T02:44:24;5.00;99.90
22288;DHT22;11312;51.464;6.968;2022-12-07T02:46:55;5.00;99.90
22288;DHT22;11312;51.464;6.968;2022-12-07T02:49:23;5.00;99.90
22288;DHT22;11312;51.464;6.968;2022-12-07T02:51:52;5.00;99.90
22288;DHT22;11312;51.464;6.968;2022-12-07T02:54:19;4.90;99.90
22288;DHT22;11312;51.464;6.968;2022-12-07T02:57:27;4.80;99.90
22288;DHT22;11312;51.464;6.968;2022-12-07T03:16:29;4.50;99.90
22288;DHT22;11312;51.464;6.968;2022-12-07T03:22:02;4.30;99.90
22288;DHT22;11312;51.464;6.968;2022-12-07T03:24:33;4.40;99.90
22288;DHT22;11312;51.464;6.968;2022-12-07T03:27:12;4.40;99.90
22288;DHT22;11312;51.464;6.968;2022-12-07T03:29:47;4.30;99.90
22288;DHT22;11312;51.464;6.968;2022-12-07T03:32:45;4.20;99.90
22288;DHT22;11312;51.464;6.968;2022-12-07T03:35:25;4.10;99.90
22288;DHT22;11312;51.464;6.968;2022-12-07T03:37:56;4.00;99.90
22288;DHT22;11312;51.464;6.968;2022-12-07T03:40:45;4.00;99.90
22288;DHT22;11312;51.464;6.968;2022-12-07T03:43:12;4.00;99.90
22288;DHT22;11312;51.464;6.968;2022-12-07T03:45:39;3.90;99.90
22288;DHT22;11312;51.464;6.968;2022-12-07T03:48:16;3.80;99.90
22288;DHT22;11312;51.464;6.968;2022-12-07T03:50:52;3.70;99.90
22288;DHT22;11312;51.464;6.968;2022-12-07T03:53:34;3.70;99.90
22288;DHT22;11312;51.464;6.968;2022-12-07T03:56:02;3.90;99.90
22288;DHT22;11312;51.464;6.968;2022-12-07T03:58:28;4.10;99.90
22288;DHT22;11312;51.464;6.968;2022-12-07T04:00:55;4.10;99.90
22288;DHT22;11312;51.464;6.968;2022-12-07T04:03:21;4.20;99.90
22288;DHT22;11312;51.464;6.968;2022-12-07T04:05:47;4.20;99.90
22288;DHT22;11312;51.464;6.968;2022-12-07T04:08:12;4.30;99.90
22288;DHT22;11312;51.464;6.968;2022-12-07T04:10:38;4.40;99.90
22288;DHT22;11312;51.464;6.968;2022-12-07T04:13:04;4.30;99.90
22288;DHT22;11312;51.464;6.968;2022-12-07T04:15:30;4.20;99.90
22288;DHT22;11312;51.464;6.968;2022-12-07T04:17:55;4.20;99.90
22288;DHT22;11312;51.464;6.968;2022-12-07T04:20:21;4.10;99.90
22288;DHT22;11312;51.464;6.968;2022-12-07T04:22:47;4.10;99.90
22288;DHT22;11312;51.464;6.968;2022-12-07T04:25:12;4.10;99.90
22288;DHT22;11312;51.464;6.968;2022-12-07T04:27:38;4.10;99.90
22288;DHT22;11312;51.464;6.968;2022-12-07T04:30:04;4.00;99.90
22288;DHT22;11312;51.464;6.968;2022-12-07T04:32:31;3.90;99.90
22288;DHT22;11312;51.464;6.968;2022-12-07T04:34:57;3.90;99.90
22288;DHT22;11312;51.464;6.968;2022-12-07T04:37:23;3.90;99.90
22288;DHT22;11312;51.464;6.968;2022-12-07T04:39:49;3.80;99.90
22288;DHT22;11312;51.464;6.968;2022-12-07T04:42:15;3.80;99.90
22288;DHT22;11312;51.464;6.968;2022-12-07T04:44:41;3.70;99.90
22288;DHT22;11312;51.464;6.968;2022-12-07T04:47:06;3.60;99.90
22288;DHT22;11312;51.464;6.968;2022-12-07T04:49:32;3.60;99.90
22288;DHT22;11312;51.464;6.968;2022-12-07T04:51:57;3.60;99.90
22288;DHT22;11312;51.464;6.968;2022-12-07T04:54:23;3.50;99.90
22288;DHT22;11312;51.464;6.968;2022-12-07T04:56:49;3.60;99.90
22288;DHT22;11312;51.464;6.968;2022-12-07T04:59:15;3.50;99.90
22288;DHT22;11312;51.464;6.968;2022-12-07T05:01:41;3.50;99.90
22288;DHT22;11312;51.464;6.968;2022-12-07T05:04:07;3.60;99.90
22288;DHT22;11312;51.464;6.968;2022-12-07T05:06:33;3.50;99.90
22288;DHT22;11312;51.464;6.968;2022-12-07T05:08:59;3.60;99.90
22288;DHT22;11312;51.464;6.968;2022-12-07T05:11:25;3.60;99.90
22288;DHT22;11312;51.464;6.968;2022-12-07T05:14:17;3.70;99.90
22288;DHT22;11312;51.464;6.968;2022-12-07T05:16:45;3.80;99.90
22288;DHT22;11312;51.464;6.968;2022-12-07T05:19:12;3.80;99.90
22288;DHT22;11312;51.464;6.968;2022-12-07T05:21:38;3.80;99.90
22288;DHT22;11312;51.464;6.968;2022-12-07T05:24:05;3.80;99.90
22288;DHT22;11312;51.464;6.968;2022-12-07T05:26:31;3.90;99.90
22288;DHT22;11312;51.464;6.968;2022-12-07T05:28:57;3.90;99.90
22288;DHT22;11312;51.464;6.968;2022-12-07T05:31:24;3.90;99.90
22288;DHT22;11312;51.464;6.968;2022-12-07T05:33:50;3.90;99.90
22288;DHT22;11312;51.464;6.968;2022-12-07T05:36:15;3.90;99.90
22288;DHT22;11312;51.464;6.968;2022-12-07T05:38:42;4.00;99.90
22288;DHT22;11312;51.464;6.968;2022-12-07T05:41:08;4.00;99.90
22288;DHT22;11312;51.464;6.968;2022-12-07T05:43:54;4.00;99.90
22288;DHT22;11312;51.464;6.968;2022-12-07T05:46:20;4.10;99.90
22288;DHT22;11312;51.464;6.968;2022-12-07T05:48:46;4.00;99.90
22288;DHT22;11312;51.464;6.968;2022-12-07T05:51:11;4.10;99.90
22288;DHT22;11312;51.464;6.968;2022-12-07T05:53:37;4.00;99.90
22288;DHT22;11312;51.464;6.968;2022-12-07T05:56:03;4.00;99.90
22288;DHT22;11312;51.464;6.968;2022-12-07T05:58:28;4.10;99.90
22288;DHT22;11312;51.464;6.968;2022-12-07T06:01:13;4.00;99.90
22288;DHT22;11312;51.464;6.968;2022-12-07T06:03:38;4.00;99.90
22288;DHT22;11312;51.464;6.968;2022-12-07T06:06:04;4.10;99.90
22288;DHT22;11312;51.464;6.968;2022-12-07T06:08:30;4.10;99.90
22288;DHT22;11312;51.464;6.968;2022-12-07T06:10:55;4.00;99.90
22288;DHT22;11312;51.464;6.968;2022-12-07T06:13:47;4.10;99.90
22288;DHT22;11312;51.464;6.968;2022-12-07T06:16:13;4.10;99.90
22288;DHT22;11312;51.464;6.968;2022-12-07T06:18:40;4.00;99.90
22288;DHT22;11312;51.464;6.968;2022-12-07T06:21:05;3.90;99.90
22288;DHT22;11312;51.464;6.968;2022-12-07T06:23:31;3.80;99.90
22288;DHT22;11312;51.464;6.968;2022-12-07T06:25:56;3.80;99.90
22288;DHT22;11312;51.464;6.968;2022-12-07T06:28:22;3.80;99.90
22288;DHT22;11312;51.464;6.968;2022-12-07T06:30:47;3.90;99.90
22288;DHT22;11312;51.464;6.968;2022-12-07T06:33:21;3.90;99.90
22288;DHT22;11312;51.464;6.968;2022-12-07T06:35:47;4.00;99.90
22288;DHT22;11312;51.464;6.968;2022-12-07T06:38:12;4.00;99.90
22288;DHT22;11312;51.464;6.968;2022-12-07T06:40:38;4.00;99.90
22288;DHT22;11312;51.464;6.968;2022-12-07T06:43:04;4.10;99.90
22288;DHT22;11312;51.464;6.968;2022-12-07T06:45:29;4.10;99.90
22288;DHT22;11312;51.464;6.968;2022-12-07T06:47:55;4.10;99.90
22288;DHT22;11312;51.464;6.968;2022-12-07T06:50:21;4.10;99.90
22288;DHT22;11312;51.464;6.968;2022-12-07T06:52:46;4.10;99.90
22288;DHT22;11312;51.464;6.968;2022-12-07T06:55:12;4.10;99.90
22288;DHT22;11312;51.464;6.968;2022-12-07T06:57:37;4.10;99.90
22288;DHT22;11312;51.464;6.968;2022-12-07T07:00:03;4.10;99.90
22288;DHT22;11312;51.464;6.968;2022-12-07T07:02:29;4.00;99.90
22288;DHT22;11312;51.464;6.968;2022-12-07T07:04:55;3.90;99.90
22288;DHT22;11312;51.464;6.968;2022-12-07T07:07:20;3.90;99.90
22288;DHT22;11312;51.464;6.968;2022-12-07T07:09:46;3.90;99.90
22288;DHT22;11312;51.464;6.968;2022-12-07T07:12:12;3.90;99.90
22288;DHT22;11312;51.464;6.968;2022-12-07T07:14:38;3.90;99.90
22288;DHT22;11312;51.464;6.968;2022-12-07T07:17:04;3.90;99.90
22288;DHT22;11312;51.464;6.968;2022-12-07T07:19:30;4.00;99.90
22288;DHT22;11312;51.464;6.968;2022-12-07T07:21:55;4.00;99.90
22288;DHT22;11312;51.464;6.968;2022-12-07T07:24:21;3.90;99.90
22288;DHT22;11312;51.464;6.968;2022-12-07T07:26:46;3.90;99.90
22288;DHT22;11312;51.464;6.968;2022-12-07T07:29:12;3.70;99.90
22288;DHT22;11312;51.464;6.968;2022-12-07T07:31:38;3.80;99.90
22288;DHT22;11312;51.464;6.968;2022-12-07T07:34:04;3.70;99.90
22288;DHT22;11312;51.464;6.968;2022-12-07T07:36:29;3.80;99.90
22288;DHT22;11312;51.464;6.968;2022-12-07T07:38:55;3.80;99.90
22288;DHT22;11312;51.464;6.968;2022-12-07T07:41:20;3.80;99.90
22288;DHT22;11312;51.464;6.968;2022-12-07T07:43:46;4.00;99.90
22288;DHT22;11312;51.464;6.968;2022-12-07T07:46:12;4.10;99.90
22288;DHT22;11312;51.464;6.968;2022-12-07T07:48:37;4.10;99.90
22288;DHT22;11312;51.464;6.968;2022-12-07T07:51:07;4.10;99.90
22288;DHT22;11312;51.464;6.968;2022-12-07T07:53:33;4.10;99.90
22288;DHT22;11312;51.464;6.968;2022-12-07T07:55:58;4.10;99.90
22288;DHT22;11312;51.464;6.968;2022-12-07T07:58:24;4.10;99.90
22288;DHT22;11312;51.464;6.968;2022-12-07T08:00:50;4.20;99.90
22288;DHT22;11312;51.464;6.968;2022-12-07T08:03:15;4.30;99.90
22288;DHT22;11312;51.464;6.968;2022-12-07T08:05:41;4.30;99.90
22288;DHT22;11312;51.464;6.968;2022-12-07T08:08:06;4.50;99.90
22288;DHT22;11312;51.464;6.968;2022-12-07T08:10:32;4.50;99.90
22288;DHT22;11312;51.464;6.968;2022-12-07T08:12:58;4.40;99.90
22288;DHT22;11312;51.464;6.968;2022-12-07T08:15:38;4.40;99.90
22288;DHT22;11312;51.464;6.968;2022-12-07T08:18:04;4.50;99.90
22288;DHT22;11312;51.464;6.968;2022-12-07T08:20:31;4.60;99.90
22288;DHT22;11312;51.464;6.968;2022-12-07T08:22:58;4.70;99.90
22288;DHT22;11312;51.464;6.968;2022-12-07T08:25:24;4.60;99.90
22288;DHT22;11312;51.464;6.968;2022-12-07T08:27:50;4.60;99.90
22288;DHT22;11312;51.464;6.968;2022-12-07T08:30:17;4.60;99.90
22288;DHT22;11312;51.464;6.968;2022-12-07T08:32:44;4.60;99.90
22288;DHT22;11312;51.464;6.968;2022-12-07T08:35:10;4.60;99.90
22288;DHT22;11312;51.464;6.968;2022-12-07T08:37:37;4.60;99.90
22288;DHT22;11312;51.464;6.968;2022-12-07T08:40:03;4.60;99.90
22288;DHT22;11312;51.464;6.968;2022-12-07T08:42:29;4.60;99.90
22288;DHT22;11312;51.464;6.968;2022-12-07T08:45:04;4.60;99.90
22288;DHT22;11312;51.464;6.968;2022-12-07T08:47:30;4.70;99.90
22288;DHT22;11312;51.464;6.968;2022-12-07T08:49:56;4.70;99.90
22288;DHT22;11312;51.464;6.968;2022-12-07T08:52:22;4.50;99.90
22288;DHT22;11312;51.464;6.968;2022-12-07T08:54:48;4.40;99.90
22288;DHT22;11312;51.464;6.968;2022-12-07T08:57:14;4.40;99.90
22288;DHT22;11312;51.464;6.968;2022-12-07T08:59:40;4.60;99.90
22288;DHT22;11312;51.464;6.968;2022-12-07T09:02:06;4.70;99.90
22288;DHT22;11312;51.464;6.968;2022-12-07T09:04:31;4.80;99.90
22288;DHT22;11312;51.464;6.968;2022-12-07T09:06:57;5.10;99.90
22288;DHT22;11312;51.464;6.968;2022-12-07T09:09:23;5.20;99.90
22288;DHT22;11312;51.464;6.968;2022-12-07T09:11:48;5.30;99.90
22288;DHT22;11312;51.464;6.968;2022-12-07T09:14:14;5.20;99.90
22288;DHT22;11312;51.464;6.968;2022-12-07T09:16:40;5.20;99.90
22288;DHT22;11312;51.464;6.968;2022-12-07T09:19:06;5.30;99.90
22288;DHT22;11312;51.464;6.968;2022-12-07T09:21:32;5.50;99.90
22288;DHT22;11312;51.464;6.968;2022-12-07T09:23:58;5.60;99.90
22288;DHT22;11312;51.464;6.968;2022-12-07T09:26:24;5.60;99.90
22288;DHT22;11312;51.464;6.968;2022-12-07T09:28:49;5.80;99.90
22288;DHT22;11312;51.464;6.968;2022-12-07T09:31:15;5.80;99.90
22288;DHT22;11312;51.464;6.968;2022-12-07T09:33:40;6.00;99.90
22288;DHT22;11312;51.464;6.968;2022-12-07T09:36:07;6.00;99.90
22288;DHT22;11312;51.464;6.968;2022-12-07T09:38:32;6.00;99.90
22288;DHT22;11312;51.464;6.968;2022-12-07T09:41:04;6.10;99.90
22288;DHT22;11312;51.464;6.968;2022-12-07T09:43:30;6.00;99.90
22288;DHT22;11312;51.464;6.968;2022-12-07T09:45:56;6.20;99.90
22288;DHT22;11312;51.464;6.968;2022-12-07T09:48:34;6.40;99.90
22288;DHT22;11312;51.464;6.968;2022-12-07T09:51:24;6.30;99.90
22288;DHT22;11312;51.464;6.968;2022-12-07T09:53:54;6.20;99.90
22288;DHT22;11312;51.464;6.968;2022-12-07T09:56:22;6.10;99.90
22288;DHT22;11312;51.464;6.968;2022-12-07T09:58:48;6.10;99.90
22288;DHT22;11312;51.464;6.968;2022-12-07T10:01:21;6.30;99.90
22288;DHT22;11312;51.464;6.968;2022-12-07T10:03:52;6.10;99.90
22288;DHT22;11312;51.464;6.968;2022-12-07T10:06:18;6.00;99.90
22288;DHT22;11312;51.464;6.968;2022-12-07T10:08:44;5.70;99.90
22288;DHT22;11312;51.464;6.968;2022-12-07T10:11:11;5.80;99.90
22288;DHT22;11312;51.464;6.968;2022-12-07T10:13:47;6.10;99.90
22288;DHT22;11312;51.464;6.968;2022-12-07T10:16:38;6.10;99.90
22288;DHT22;11312;51.464;6.968;2022-12-07T10:19:21;6.20;99.90
22288;DHT22;11312;51.464;6.968;2022-12-07T10:22:15;6.50;99.90
22288;DHT22;11312;51.464;6.968;2022-12-07T10:24:42;7.20;99.90
22288;DHT22;11312;51.464;6.968;2022-12-07T10:27:25;7.20;99.90
22288;DHT22;11312;51.464;6.968;2022-12-07T10:29:52;7.20;99.90
22288;DHT22;11312;51.464;6.968;2022-12-07T10:34:44;7.40;99.90
22288;DHT22;11312;51.464;6.968;2022-12-07T10:39:58;8.10;99.90
22288;DHT22;11312;51.464;6.968;2022-12-07T10:42:26;8.60;99.90
22288;DHT22;11312;51.464;6.968;2022-12-07T10:45:13;8.60;99.90
22288;DHT22;11312;51.464;6.968;2022-12-07T10:47:54;8.20;99.90
22288;DHT22;11312;51.464;6.968;2022-12-07T10:53:28;7.60;99.90
22288;DHT22;11312;51.464;6.968;2022-12-07T11:01:33;7.10;99.90
22288;DHT22;11312;51.464;6.968;2022-12-07T11:10:02;7.30;99.90
22288;DHT22;11312;51.464;6.968;2022-12-07T11:12:48;7.20;99.90
22288;DHT22;11312;51.464;6.968;2022-12-07T11:15:55;7.10;99.90
22288;DHT22;11312;51.464;6.968;2022-12-07T11:32:45;6.60;99.90
22288;DHT22;11312;51.464;6.968;2022-12-07T11:37:37;6.60;99.90
22288;DHT22;11312;51.464;6.968;2022-12-07T11:40:24;6.70;99.90
22288;DHT22;11312;51.464;6.968;2022-12-07T11:42:59;6.80;99.90
22288;DHT22;11312;51.464;6.968;2022-12-07T11:45:30;7.30;99.90
22288;DHT22;11312;51.464;6.968;2022-12-07T11:48:20;7.70;99.90
22288;DHT22;11312;51.464;6.968;2022-12-07T11:51:09;7.70;99.90
22288;DHT22;11312;51.464;6.968;2022-12-07T11:53:52;7.70;99.90
22288;DHT22;11312;51.464;6.968;2022-12-07T11:56:24;7.50;99.90
22288;DHT22;11312;51.464;6.968;2022-12-07T11:59:17;7.30;99.90
22288;DHT22;11312;51.464;6.968;2022-12-07T12:01:50;7.30;99.90
22288;DHT22;11312;51.464;6.968;2022-12-07T12:06:53;7.20;99.90
22288;DHT22;11312;51.464;6.968;2022-12-07T12:09:32;7.10;99.90
22288;DHT22;11312;51.464;6.968;2022-12-07T12:17:23;7.20;99.90
22288;DHT22;11312;51.464;6.968;2022-12-07T12:22:58;7.00;99.90
22288;DHT22;11312;51.464;6.968;2022-12-07T12:25:28;6.90;99.90
22288;DHT22;11312;51.464;6.968;2022-12-07T12:27:57;6.90;99.90
22288;DHT22;11312;51.464;6.968;2022-12-07T12:30:39;6.90;99.90
22288;DHT22;11312;51.464;6.968;2022-12-07T12:33:28;6.90;99.90
22288;DHT22;11312;51.464;6.968;2022-12-07T12:47:01;6.80;99.90
22288;DHT22;11312;51.464;6.968;2022-12-07T12:49:37;6.90;99.90
22288;DHT22;11312;51.464;6.968;2022-12-07T12:57:34;7.00;99.90
22288;DHT22;11312;51.464;6.968;2022-12-07T13:00:17;7.00;99.90
22288;DHT22;11312;51.464;6.968;2022-12-07T13:02:54;6.90;99.90
22288;DHT22;11312;51.464;6.968;2022-12-07T13:05:25;7.00;99.90
22288;DHT22;11312;51.464;6.968;2022-12-07T13:07:58;6.90;99.90
22288;DHT22;11312;51.464;6.968;2022-12-07T13:18:38;6.60;99.90
22288;DHT22;11312;51.464;6.968;2022-12-07T13:26:22;6.70;99.90
22288;DHT22;11312;51.464;6.968;2022-12-07T13:29:13;6.60;99.90
22288;DHT22;11312;51.464;6.968;2022-12-07T13:31:51;6.60;99.90
22288;DHT22;11312;51.464;6.968;2022-12-07T13:34:33;6.60;99.90
22288;DHT22;11312;51.464;6.968;2022-12-07T13:39:53;6.50;99.90
22288;DHT22;11312;51.464;6.968;2022-12-07T13:42:25;6.50;99.90
22288;DHT22;11312;51.464;6.968;2022-12-07T13:44:52;6.50;99.90
22288;DHT22;11312;51.464;6.968;2022-12-07T13:47:43;6.40;99.90
22288;DHT22;11312;51.464;6.968;2022-12-07T13:50:25;6.40;99.90
22288;DHT22;11312;51.464;6.968;2022-12-07T13:52:55;6.40;99.90
22288;DHT22;11312;51.464;6.968;2022-12-07T13:55:21;6.30;99.90
22288;DHT22;11312;51.464;6.968;2022-12-07T13:57:52;6.30;99.90
22288;DHT22;11312;51.464;6.968;2022-12-07T14:00:23;6.30;99.90
22288;DHT22;11312;51.464;6.968;2022-12-07T14:03:01;6.30;99.90
22288;DHT22;11312;51.464;6.968;2022-12-07T14:05:32;6.20;99.90
22288;DHT22;11312;51.464;6.968;2022-12-07T14:08:20;6.20;99.90
22288;DHT22;11312;51.464;6.968;2022-12-07T14:16:01;5.80;99.90
22288;DHT22;11312;51.464;6.968;2022-12-07T14:21:25;5.70;99.90
22288;DHT22;11312;51.464;6.968;2022-12-07T14:24:16;5.70;99.90
22288;DHT22;11312;51.464;6.968;2022-12-07T14:26:47;5.60;99.90
22288;DHT22;11312;51.464;6.968;2022-12-07T14:29:20;5.60;99.90
22288;DHT22;11312;51.464;6.968;2022-12-07T14:31:46;5.50;99.90
22288;DHT22;11312;51.464;6.968;2022-12-07T14:34:13;5.50;99.90
22288;DHT22;11312;51.464;6.968;2022-12-07T14:36:38;5.40;99.90
22288;DHT22;11312;51.464;6.968;2022-12-07T14:39:04;5.40;99.90
22288;DHT22;11312;51.464;6.968;2022-12-07T14:41:30;5.30;99.90
22288;DHT22;11312;51.464;6.968;2022-12-07T14:44:14;5.20;99.90
22288;DHT22;11312;51.464;6.968;2022-12-07T14:46:39;5.00;99.90
22288;DHT22;11312;51.464;6.968;2022-12-07T14:49:05;5.00;99.90
22288;DHT22;11312;51.464;6.968;2022-12-07T14:51:31;4.80;99.90
22288;DHT22;11312;51.464;6.968;2022-12-07T14:53:57;4.70;99.90
22288;DHT22;11312;51.464;6.968;2022-12-07T14:56:23;4.70;99.90
22288;DHT22;11312;51.464;6.968;2022-12-07T14:58:49;4.70;99.90
22288;DHT22;11312;51.464;6.968;2022-12-07T15:01:14;4.60;99.90
22288;DHT22;11312;51.464;6.968;2022-12-07T15:03:40;4.50;99.90
22288;DHT22;11312;51.464;6.968;2022-12-07T15:06:06;4.40;99.90
22288;DHT22;11312;51.464;6.968;2022-12-07T15:08:32;4.30;99.90
22288;DHT22;11312;51.464;6.968;2022-12-07T15:10:58;4.20;99.90
22288;DHT22;11312;51.464;6.968;2022-12-07T15:13:24;4.20;99.90
22288;DHT22;11312;51.464;6.968;2022-12-07T15:16:19;4.10;99.90
22288;DHT22;11312;51.464;6.968;2022-12-07T15:18:46;4.00;99.90
22288;DHT22;11312;51.464;6.968;2022-12-07T15:21:15;4.10;99.90
22288;DHT22;11312;51.464;6.968;2022-12-07T15:23:41;4.00;99.90
22288;DHT22;11312;51.464;6.968;2022-12-07T15:26:09;4.10;99.90
22288;DHT22;11312;51.464;6.968;2022-12-07T15:28:35;4.00;99.90
22288;DHT22;11312;51.464;6.968;2022-12-07T15:31:00;4.00;99.90
22288;DHT22;11312;51.464;6.968;2022-12-07T15:33:26;4.00;99.90
22288;DHT22;11312;51.464;6.968;2022-12-07T15:35:51;4.10;99.90
22288;DHT22;11312;51.464;6.968;2022-12-07T15:38:17;4.20;99.90
22288;DHT22;11312;51.464;6.968;2022-12-07T15:40:46;4.20;99.90
22288;DHT22;11312;51.464;6.968;2022-12-07T15:43:12;4.30;99.90
22288;DHT22;11312;51.464;6.968;2022-12-07T15:45:57;4.30;99.90
22288;DHT22;11312;51.464;6.968;2022-12-07T15:48:23;4.30;99.90
22288;DHT22;11312;51.464;6.968;2022-12-07T15:50:48;4.30;99.90
22288;DHT22;11312;51.464;6.968;2022-12-07T15:53:14;4.30;99.90
22288;DHT22;11312;51.464;6.968;2022-12-07T15:55:40;4.30;99.90
22288;DHT22;11312;51.464;6.968;2022-12-07T15:58:06;4.20;99.90
22288;DHT22;11312;51.464;6.968;2022-12-07T16:00:32;4.30;99.90
22288;DHT22;11312;51.464;6.968;2022-12-07T16:02:58;4.20;99.90
22288;DHT22;11312;51.464;6.968;2022-12-07T16:05:23;4.20;99.90
22288;DHT22;11312;51.464;6.968;2022-12-07T16:07:49;4.30;99.90
22288;DHT22;11312;51.464;6.968;2022-12-07T16:10:15;4.40;99.90
22288;DHT22;11312;51.464;6.968;2022-12-07T16:12:40;4.40;99.90
22288;DHT22;11312;51.464;6.968;2022-12-07T16:15:06;4.50;99.90
22288;DHT22;11312;51.464;6.968;2022-12-07T16:17:32;4.50;99.90
22288;DHT22;11312;51.464;6.968;2022-12-07T16:19:58;4.50;99.90
22288;DHT22;11312;51.464;6.968;2022-12-07T16:22:23;4.60;99.90
22288;DHT22;11312;51.464;6.968;2022-12-07T16:24:49;4.70;99.90
22288;DHT22;11312;51.464;6.968;2022-12-07T16:27:16;4.70;99.90
22288;DHT22;11312;51.464;6.968;2022-12-07T16:29:41;4.70;99.90
22288;DHT22;11312;51.464;6.968;2022-12-07T16:32:07;4.70;99.90
22288;DHT22;11312;51.464;6.968;2022-12-07T16:34:33;4.70;99.90
22288;DHT22;11312;51.464;6.968;2022-12-07T16:36:58;4.80;99.90
22288;DHT22;11312;51.464;6.968;2022-12-07T16:39:24;4.80;99.90
22288;DHT22;11312;51.464;6.968;2022-12-07T16:41:50;4.80;99.90
22288;DHT22;11312;51.464;6.968;2022-12-07T16:44:16;4.80;99.90
22288;DHT22;11312;51.464;6.968;2022-12-07T16:46:42;4.80;99.90
22288;DHT22;11312;51.464;6.968;2022-12-07T16:49:12;4.90;99.90
22288;DHT22;11312;51.464;6.968;2022-12-07T16:51:38;4.90;99.90
22288;DHT22;11312;51.464;6.968;2022-12-07T16:54:04;4.80;99.90
22288;DHT22;11312;51.464;6.968;2022-12-07T16:56:30;4.90;99.90
22288;DHT22;11312;51.464;6.968;2022-12-07T16:58:58;5.00;99.90
22288;DHT22;11312;51.464;6.968;2022-12-07T17:01:24;5.00;99.90
22288;DHT22;11312;51.464;6.968;2022-12-07T17:03:52;5.00;99.90
22288;DHT22;11312;51.464;6.968;2022-12-07T17:06:22;4.90;99.90
22288;DHT22;11312;51.464;6.968;2022-12-07T17:08:49;4.90;99.90
22288;DHT22;11312;51.464;6.968;2022-12-07T17:11:23;4.90;99.90
22288;DHT22;11312;51.464;6.968;2022-12-07T17:13:50;4.90;99.90
22288;DHT22;11312;51.464;6.968;2022-12-07T17:16:35;4.90;99.90
22288;DHT22;11312;51.464;6.968;2022-12-07T17:19:04;4.90;99.90
22288;DHT22;11312;51.464;6.968;2022-12-07T17:21:31;4.90;99.90
22288;DHT22;11312;51.464;6.968;2022-12-07T17:23:59;4.90;99.90
22288;DHT22;11312;51.464;6.968;2022-12-07T17:26:26;4.90;99.90
22288;DHT22;11312;51.464;6.968;2022-12-07T17:28:52;4.90;99.90
22288;DHT22;11312;51.464;6.968;2022-12-07T17:31:19;4.90;99.90
22288;DHT22;11312;51.464;6.968;2022-12-07T17:33:46;4.90;99.90
22288;DHT22;11312;51.464;6.968;2022-12-07T17:36:19;4.90;99.90
22288;DHT22;11312;51.464;6.968;2022-12-07T17:38:45;4.90;99.90
22288;DHT22;11312;51.464;6.968;2022-12-07T17:41:16;4.90;99.90
22288;DHT22;11312;51.464;6.968;2022-12-07T17:44:03;4.90;99.90
22288;DHT22;11312;51.464;6.968;2022-12-07T17:46:30;4.90;99.90
22288;DHT22;11312;51.464;6.968;2022-12-07T17:48:57;4.90;99.90
22288;DHT22;11312;51.464;6.968;2022-12-07T17:51:23;4.90;99.90
22288;DHT22;11312;51.464;6.968;2022-12-07T17:54:07;4.90;99.90
22288;DHT22;11312;51.464;6.968;2022-12-07T17:56:33;4.90;99.90
22288;DHT22;11312;51.464;6.968;2022-12-07T17:58:58;4.80;99.90